createdAt,value
2023-03-23T15:59:54.922Z,2.35
2023-03-23T16:02:23.659Z,2.40
2023-03-23T16:04:51.170Z,1.83
2023-03-23T16:07:21.324Z,1.90
2023-03-23T16:09:48.093Z,2.08
2023-03-23T16:12:14.928Z,1.98
2023-03-23T16:14:42.337Z,2.25
2023-03-23T16:17:19.675Z,2.53
2023-03-23T16:19:46.660Z,1.65
2023-03-23T16:22:13.283Z,1.73
2023-03-23T16:24:40.042Z,1.70
2023-03-23T16:27:06.794Z,1.50
2023-03-23T16:29:54.166Z,1.63
2023-03-23T16:32:20.181Z,1.90
2023-03-23T16:34:46.818Z,1.85
2023-03-23T16:37:13.800Z,1.58
2023-03-23T16:39:42.062Z,1.17
2023-03-23T16:42:09.389Z,2.40
2023-03-23T16:44:36.048Z,1.52
2023-03-23T16:47:02.876Z,1.50
2023-03-23T16:49:29.537Z,1.88
2023-03-23T16:51:56.269Z,2.15
2023-03-23T16:54:23.001Z,1.95
2023-03-23T16:56:51.178Z,1.90
2023-03-23T16:59:18.038Z,2.45
2023-03-23T17:01:48.140Z,1.95
2023-03-23T17:04:15.830Z,2.13
2023-03-23T17:06:44.411Z,2.13
2023-03-23T17:09:11.083Z,2.10
2023-03-23T17:11:37.768Z,2.20
2023-03-23T17:14:04.496Z,1.58
2023-03-23T17:16:33.309Z,1.85
2023-03-23T17:19:00.091Z,2.10
2023-03-23T17:21:28.647Z,2.05
2023-03-23T17:23:55.450Z,2.42
2023-03-23T17:26:22.174Z,1.80
2023-03-23T17:28:48.865Z,2.30
2023-03-23T17:31:15.781Z,2.28
2023-03-23T17:33:42.578Z,2.38
2023-03-23T17:36:09.400Z,2.25
2023-03-23T17:38:36.065Z,2.47
2023-03-23T17:41:05.330Z,3.33
2023-03-23T17:43:34.382Z,4.05
2023-03-23T17:46:01.199Z,4.60
2023-03-23T17:48:28.522Z,4.30
2023-03-23T17:51:00.149Z,3.60
2023-03-23T17:53:26.964Z,3.75
2023-03-23T17:55:54.310Z,3.95
2023-03-23T17:58:21.072Z,4.20
2023-03-23T18:00:47.747Z,3.15
2023-03-23T18:03:14.511Z,3.30
2023-03-23T18:05:41.378Z,3.50
2023-03-23T18:08:08.838Z,3.30
2023-03-23T18:10:38.988Z,3.38
2023-03-23T18:13:07.059Z,3.05
2023-03-23T18:15:34.273Z,3.33
2023-03-23T18:18:03.586Z,3.22
2023-03-23T18:20:33.748Z,3.60
2023-03-23T18:23:00.530Z,3.38
2023-03-23T18:25:27.237Z,3.00
2023-03-23T18:27:54.264Z,2.88
2023-03-23T18:30:20.981Z,2.90
2023-03-23T18:32:47.612Z,2.95
2023-03-23T18:35:14.371Z,2.92
2023-03-23T18:37:41.429Z,3.50
2023-03-23T18:40:11.162Z,3.30
2023-03-23T18:42:38.882Z,3.75
2023-03-23T18:45:06.433Z,3.40
2023-03-23T18:47:33.357Z,2.90
2023-03-23T18:50:01.497Z,3.20
2023-03-23T18:52:31.132Z,3.08
2023-03-23T18:54:58.943Z,3.20
2023-03-23T18:57:25.951Z,2.85
2023-03-23T18:59:52.588Z,3.80
2023-03-23T19:02:19.981Z,3.10
2023-03-23T19:04:48.079Z,2.90
2023-03-23T19:07:16.365Z,2.95
2023-03-23T19:09:45.017Z,3.15
2023-03-23T19:12:12.321Z,2.28
2023-03-23T19:14:40.362Z,2.70
2023-03-23T19:17:08.003Z,2.70
2023-03-23T19:19:35.728Z,2.92
2023-03-23T19:22:03.464Z,2.20
2023-03-23T19:24:31.714Z,2.38
2023-03-23T19:26:58.450Z,2.42
2023-03-23T19:29:27.439Z,2.53
2023-03-23T19:31:55.507Z,2.28
2023-03-23T19:34:22.794Z,2.70
2023-03-23T19:36:55.180Z,1.83
2023-03-23T19:39:30.403Z,2.30
2023-03-23T19:41:57.150Z,2.40
2023-03-23T19:44:25.192Z,2.30
2023-03-23T19:46:52.395Z,2.50
2023-03-23T19:49:19.937Z,2.47
2023-03-23T19:51:46.738Z,2.47
2023-03-23T19:54:13.556Z,2.60
2023-03-23T19:56:40.570Z,1.95
2023-03-23T19:59:10.534Z,2.42
2023-03-23T20:01:37.760Z,2.17
2023-03-23T20:04:08.258Z,2.00
2023-03-23T20:06:35.659Z,2.60
2023-03-23T20:09:02.733Z,2.42
2023-03-23T20:11:30.968Z,2.20
2023-03-23T20:13:58.240Z,2.22
2023-03-23T20:16:27.184Z,2.72
2023-03-23T20:18:55.908Z,2.90
2023-03-23T20:21:24.974Z,2.47
2023-03-23T20:24:00.775Z,2.33
2023-03-23T20:26:34.010Z,2.15
2023-03-23T20:29:01.190Z,2.63
2023-03-23T20:31:33.633Z,2.25
2023-03-23T20:34:29.410Z,2.33
2023-03-23T20:36:57.767Z,1.85
2023-03-23T20:39:26.711Z,2.65
2023-03-23T20:41:57.077Z,2.38
2023-03-23T20:44:25.175Z,2.30
2023-03-23T20:46:52.742Z,2.35
2023-03-23T20:49:26.036Z,2.83
2023-03-23T20:51:53.682Z,2.25
2023-03-23T20:54:21.857Z,2.30
2023-03-23T20:56:48.681Z,2.65
2023-03-23T20:59:16.509Z,2.22
2023-03-23T21:01:43.839Z,1.88
2023-03-23T21:04:15.359Z,2.40
2023-03-23T21:06:43.210Z,2.30
2023-03-23T21:09:10.018Z,2.47
2023-03-23T21:11:37.912Z,2.42
2023-03-23T21:14:05.431Z,2.00
2023-03-23T21:16:32.617Z,2.42
2023-03-23T21:19:02.931Z,2.75
2023-03-23T21:21:29.677Z,2.35
2023-03-23T21:23:58.259Z,3.42
2023-03-23T21:26:27.868Z,2.80
2023-03-23T21:28:55.818Z,2.25
2023-03-23T21:31:26.874Z,3.20
2023-03-23T21:33:53.699Z,2.35
2023-03-23T21:36:20.784Z,2.78
2023-03-23T21:38:50.058Z,2.08
2023-03-23T21:41:17.475Z,2.55
2023-03-23T21:43:45.873Z,2.33
2023-03-23T21:46:19.778Z,2.13
2023-03-23T21:48:51.866Z,2.15
2023-03-23T21:51:22.391Z,2.50
2023-03-23T21:53:50.243Z,1.90
2023-03-23T21:56:17.050Z,2.30
2023-03-23T21:58:46.294Z,1.92
2023-03-23T22:01:16.929Z,2.15
2023-03-23T22:03:44.524Z,1.80
2023-03-23T22:06:15.170Z,1.80
2023-03-23T22:08:43.523Z,1.77
2023-03-23T22:11:23.220Z,2.05
2023-03-23T22:13:52.687Z,2.22
2023-03-23T22:16:20.855Z,2.20
2023-03-23T22:18:49.860Z,2.00
2023-03-23T22:21:18.001Z,1.75
2023-03-23T22:23:45.778Z,1.88
2023-03-23T22:26:13.882Z,1.92
2023-03-23T22:28:41.393Z,2.05
2023-03-23T22:31:13.430Z,1.98
2023-03-23T22:33:40.261Z,2.08
2023-03-23T22:36:07.359Z,1.80
2023-03-23T22:38:38.208Z,1.90
2023-03-23T22:41:09.325Z,1.90
2023-03-23T22:43:39.137Z,1.90
2023-03-23T22:46:06.580Z,1.98
2023-03-23T22:48:33.523Z,1.90
2023-03-23T22:51:00.369Z,1.70
2023-03-23T22:53:27.579Z,1.98
2023-03-23T22:55:58.343Z,1.80
2023-03-23T22:58:27.640Z,1.98
2023-03-23T23:01:00.843Z,2.00
2023-03-23T23:03:28.960Z,1.85
2023-03-23T23:05:57.850Z,1.83
2023-03-23T23:08:26.113Z,2.30
2023-03-23T23:10:54.405Z,2.00
2023-03-23T23:13:21.890Z,1.95
2023-03-23T23:15:51.327Z,2.30
2023-03-23T23:18:18.903Z,1.85
2023-03-23T23:20:49.208Z,2.10
2023-03-23T23:23:16.041Z,2.10
2023-03-23T23:25:43.712Z,2.28
2023-03-23T23:28:11.161Z,2.00
2023-03-23T23:30:38.081Z,1.90
2023-03-23T23:33:06.261Z,2.00
2023-03-23T23:35:34.819Z,1.90
2023-03-23T23:38:01.508Z,2.17
2023-03-23T23:40:28.154Z,1.98
2023-03-23T23:42:54.898Z,2.67
2023-03-23T23:45:21.770Z,2.33
2023-03-23T23:47:48.664Z,2.00
2023-03-23T23:50:15.589Z,2.40
2023-03-23T23:52:44.652Z,2.08
2023-03-23T23:55:13.767Z,1.98
2023-03-23T23:57:40.590Z,1.75
